sensor_id;sensor_type;location;lat;lon;timestamp;P1;durP1;ratioP1;P2;durP2;ratioP2
48925;SDS011;39838;59.938;30.642;2023-12-20T00:00:35;5.13;;;2.78;;
48925;SDS011;39838;59.938;30.642;2023-12-20T00:03:03;4.93;;;3.13;;
48925;SDS011;39838;59.938;30.642;2023-12-20T00:05:31;6.90;;;2.88;;
48925;SDS011;39838;59.938;30.642;2023-12-20T00:07:59;8.07;;;2.55;;
48925;SDS011;39838;59.938;30.642;2023-12-20T00:10:26;6.25;;;2.78;;
48925;SDS011;39838;59.938;30.642;2023-12-20T00:12:55;5.63;;;2.70;;
48925;SDS011;39838;59.938;30.642;2023-12-20T00:15:22;7.05;;;2.60;;
48925;SDS011;39838;59.938;30.642;2023-12-20T00:17:49;4.95;;;2.75;;
48925;SDS011;39838;59.938;30.642;2023-12-20T00:20:17;6.35;;;2.80;;
48925;SDS011;39838;59.938;30.642;2023-12-20T00:22:44;6.60;;;2.78;;
48925;SDS011;39838;59.938;30.642;2023-12-20T00:25:12;9.13;;;3.00;;
48925;SDS011;39838;59.938;30.642;2023-12-20T00:27:39;5.88;;;3.30;;
48925;SDS011;39838;59.938;30.642;2023-12-20T00:30:09;7.03;;;3.25;;
48925;SDS011;39838;59.938;30.642;2023-12-20T00:32:37;7.43;;;3.40;;
48925;SDS011;39838;59.938;30.642;2023-12-20T00:35:07;5.28;;;2.90;;
48925;SDS011;39838;59.938;30.642;2023-12-20T00:37:34;6.32;;;2.80;;
48925;SDS011;39838;59.938;30.642;2023-12-20T00:40:01;7.93;;;3.17;;
48925;SDS011;39838;59.938;30.642;2023-12-20T00:42:30;7.80;;;3.50;;
48925;SDS011;39838;59.938;30.642;2023-12-20T00:44:58;7.07;;;2.97;;
48925;SDS011;39838;59.938;30.642;2023-12-20T00:47:27;5.63;;;2.80;;
48925;SDS011;39838;59.938;30.642;2023-12-20T00:49:54;6.75;;;3.10;;
48925;SDS011;39838;59.938;30.642;2023-12-20T00:52:21;7.47;;;2.90;;
48925;SDS011;39838;59.938;30.642;2023-12-20T00:54:49;5.57;;;3.17;;
48925;SDS011;39838;59.938;30.642;2023-12-20T00:57:16;7.03;;;3.00;;
48925;SDS011;39838;59.938;30.642;2023-12-20T00:59:44;4.10;;;3.00;;
48925;SDS011;39838;59.938;30.642;2023-12-20T01:02:11;6.20;;;3.35;;
48925;SDS011;39838;59.938;30.642;2023-12-20T01:04:39;7.38;;;3.00;;
48925;SDS011;39838;59.938;30.642;2023-12-20T01:07:07;5.28;;;3.38;;
48925;SDS011;39838;59.938;30.642;2023-12-20T01:09:35;6.80;;;2.97;;
48925;SDS011;39838;59.938;30.642;2023-12-20T01:12:03;5.03;;;3.00;;
48925;SDS011;39838;59.938;30.642;2023-12-20T01:14:30;7.45;;;3.20;;
48925;SDS011;39838;59.938;30.642;2023-12-20T01:16:58;6.78;;;2.92;;
48925;SDS011;39838;59.938;30.642;2023-12-20T01:19:25;7.07;;;3.38;;
48925;SDS011;39838;59.938;30.642;2023-12-20T01:21:55;6.13;;;3.30;;
48925;SDS011;39838;59.938;30.642;2023-12-20T01:24:22;6.10;;;3.30;;
48925;SDS011;39838;59.938;30.642;2023-12-20T01:26:49;8.07;;;3.40;;
48925;SDS011;39838;59.938;30.642;2023-12-20T01:29:16;5.43;;;2.90;;
48925;SDS011;39838;59.938;30.642;2023-12-20T01:31:44;8.60;;;3.53;;
48925;SDS011;39838;59.938;30.642;2023-12-20T01:34:12;7.28;;;3.50;;
48925;SDS011;39838;59.938;30.642;2023-12-20T01:36:39;6.25;;;3.08;;
48925;SDS011;39838;59.938;30.642;2023-12-20T01:39:08;7.13;;;3.50;;
48925;SDS011;39838;59.938;30.642;2023-12-20T01:41:35;6.45;;;3.35;;
48925;SDS011;39838;59.938;30.642;2023-12-20T01:44:02;6.25;;;3.17;;
48925;SDS011;39838;59.938;30.642;2023-12-20T01:46:30;7.55;;;3.80;;
48925;SDS011;39838;59.938;30.642;2023-12-20T01:48:57;6.57;;;3.10;;
48925;SDS011;39838;59.938;30.642;2023-12-20T01:51:25;7.15;;;3.50;;
48925;SDS011;39838;59.938;30.642;2023-12-20T01:53:53;5.60;;;3.28;;
48925;SDS011;39838;59.938;30.642;2023-12-20T01:56:23;5.38;;;2.92;;
48925;SDS011;39838;59.938;30.642;2023-12-20T01:58:51;7.50;;;3.05;;
48925;SDS011;39838;59.938;30.642;2023-12-20T02:01:19;6.18;;;3.60;;
48925;SDS011;39838;59.938;30.642;2023-12-20T02:03:47;6.70;;;3.05;;
48925;SDS011;39838;59.938;30.642;2023-12-20T02:06:15;5.55;;;2.92;;
48925;SDS011;39838;59.938;30.642;2023-12-20T02:08:45;5.05;;;3.00;;
48925;SDS011;39838;59.938;30.642;2023-12-20T02:11:12;7.68;;;3.35;;
48925;SDS011;39838;59.938;30.642;2023-12-20T02:13:41;7.82;;;3.10;;
48925;SDS011;39838;59.938;30.642;2023-12-20T02:16:09;4.45;;;2.80;;
48925;SDS011;39838;59.938;30.642;2023-12-20T02:18:37;9.05;;;3.08;;
48925;SDS011;39838;59.938;30.642;2023-12-20T02:21:05;5.82;;;2.90;;
48925;SDS011;39838;59.938;30.642;2023-12-20T02:23:33;5.82;;;2.78;;
48925;SDS011;39838;59.938;30.642;2023-12-20T02:26:01;7.40;;;2.80;;
48925;SDS011;39838;59.938;30.642;2023-12-20T02:28:29;6.70;;;2.70;;
48925;SDS011;39838;59.938;30.642;2023-12-20T02:30:57;6.78;;;2.75;;
48925;SDS011;39838;59.938;30.642;2023-12-20T02:33:24;6.22;;;3.38;;
48925;SDS011;39838;59.938;30.642;2023-12-20T02:35:51;7.22;;;2.70;;
48925;SDS011;39838;59.938;30.642;2023-12-20T02:38:19;4.78;;;2.53;;
48925;SDS011;39838;59.938;30.642;2023-12-20T02:40:47;6.20;;;2.20;;
48925;SDS011;39838;59.938;30.642;2023-12-20T02:43:15;5.35;;;2.28;;
48925;SDS011;39838;59.938;30.642;2023-12-20T02:45:42;5.60;;;2.40;;
48925;SDS011;39838;59.938;30.642;2023-12-20T02:48:09;5.75;;;2.10;;
48925;SDS011;39838;59.938;30.642;2023-12-20T02:50:36;7.18;;;2.45;;
48925;SDS011;39838;59.938;30.642;2023-12-20T02:53:04;6.43;;;2.50;;
48925;SDS011;39838;59.938;30.642;2023-12-20T02:55:31;5.15;;;2.10;;
48925;SDS011;39838;59.938;30.642;2023-12-20T02:57:59;4.32;;;2.08;;
48925;SDS011;39838;59.938;30.642;2023-12-20T03:00:27;5.13;;;2.10;;
48925;SDS011;39838;59.938;30.642;2023-12-20T03:02:54;5.68;;;2.30;;
48925;SDS011;39838;59.938;30.642;2023-12-20T03:05:21;6.78;;;2.38;;
48925;SDS011;39838;59.938;30.642;2023-12-20T03:07:49;6.70;;;2.03;;
48925;SDS011;39838;59.938;30.642;2023-12-20T03:10:16;7.95;;;2.13;;
48925;SDS011;39838;59.938;30.642;2023-12-20T03:12:44;4.18;;;2.00;;
48925;SDS011;39838;59.938;30.642;2023-12-20T03:15:13;7.60;;;2.20;;
48925;SDS011;39838;59.938;30.642;2023-12-20T03:17:40;5.38;;;2.50;;
48925;SDS011;39838;59.938;30.642;2023-12-20T03:20:08;4.72;;;1.85;;
48925;SDS011;39838;59.938;30.642;2023-12-20T03:22:35;4.70;;;1.88;;
48925;SDS011;39838;59.938;30.642;2023-12-20T03:25:03;8.88;;;2.42;;
48925;SDS011;39838;59.938;30.642;2023-12-20T03:27:31;8.88;;;2.15;;
48925;SDS011;39838;59.938;30.642;2023-12-20T03:29:58;3.67;;;1.95;;
48925;SDS011;39838;59.938;30.642;2023-12-20T03:32:27;4.72;;;2.20;;
48925;SDS011;39838;59.938;30.642;2023-12-20T03:34:55;3.08;;;1.90;;
48925;SDS011;39838;59.938;30.642;2023-12-20T03:37:22;5.75;;;2.35;;
48925;SDS011;39838;59.938;30.642;2023-12-20T03:39:50;9.07;;;2.30;;
48925;SDS011;39838;59.938;30.642;2023-12-20T03:42:17;5.47;;;2.40;;
48925;SDS011;39838;59.938;30.642;2023-12-20T03:44:44;9.07;;;2.03;;
48925;SDS011;39838;59.938;30.642;2023-12-20T03:47:12;4.68;;;2.08;;
48925;SDS011;39838;59.938;30.642;2023-12-20T03:49:40;4.80;;;1.80;;
48925;SDS011;39838;59.938;30.642;2023-12-20T03:52:08;5.13;;;2.25;;
48925;SDS011;39838;59.938;30.642;2023-12-20T03:54:35;4.10;;;1.95;;
48925;SDS011;39838;59.938;30.642;2023-12-20T03:57:03;4.18;;;2.10;;
48925;SDS011;39838;59.938;30.642;2023-12-20T03:59:34;6.38;;;2.13;;
48925;SDS011;39838;59.938;30.642;2023-12-20T04:02:02;4.28;;;1.83;;
48925;SDS011;39838;59.938;30.642;2023-12-20T04:04:30;3.47;;;1.80;;
48925;SDS011;39838;59.938;30.642;2023-12-20T04:06:59;4.18;;;1.90;;
48925;SDS011;39838;59.938;30.642;2023-12-20T04:09:27;7.32;;;2.08;;
48925;SDS011;39838;59.938;30.642;2023-12-20T04:11:55;6.30;;;1.85;;
48925;SDS011;39838;59.938;30.642;2023-12-20T04:14:22;4.97;;;1.98;;
48925;SDS011;39838;59.938;30.642;2023-12-20T04:16:50;6.72;;;2.05;;
48925;SDS011;39838;59.938;30.642;2023-12-20T04:19:17;4.15;;;1.73;;
48925;SDS011;39838;59.938;30.642;2023-12-20T04:21:44;7.95;;;2.28;;
48925;SDS011;39838;59.938;30.642;2023-12-20T04:24:13;6.18;;;2.10;;
48925;SDS011;39838;59.938;30.642;2023-12-20T04:26:40;4.30;;;2.10;;
48925;SDS011;39838;59.938;30.642;2023-12-20T04:29:08;5.03;;;2.00;;
48925;SDS011;39838;59.938;30.642;2023-12-20T04:31:35;6.75;;;2.30;;
48925;SDS011;39838;59.938;30.642;2023-12-20T04:34:02;6.53;;;2.40;;
48925;SDS011;39838;59.938;30.642;2023-12-20T04:36:29;6.50;;;2.28;;
48925;SDS011;39838;59.938;30.642;2023-12-20T04:38:57;4.38;;;2.03;;
48925;SDS011;39838;59.938;30.642;2023-12-20T04:41:26;6.13;;;2.20;;
48925;SDS011;39838;59.938;30.642;2023-12-20T04:43:54;4.38;;;2.38;;
48925;SDS011;39838;59.938;30.642;2023-12-20T04:46:21;4.85;;;2.17;;
48925;SDS011;39838;59.938;30.642;2023-12-20T04:48:48;5.63;;;2.30;;
48925;SDS011;39838;59.938;30.642;2023-12-20T04:51:15;5.03;;;2.00;;
48925;SDS011;39838;59.938;30.642;2023-12-20T04:53:43;5.78;;;2.05;;
48925;SDS011;39838;59.938;30.642;2023-12-20T04:56:10;8.02;;;1.90;;
48925;SDS011;39838;59.938;30.642;2023-12-20T04:58:38;4.45;;;2.10;;
48925;SDS011;39838;59.938;30.642;2023-12-20T05:01:06;6.25;;;2.15;;
48925;SDS011;39838;59.938;30.642;2023-12-20T05:03:33;2.88;;;1.73;;
48925;SDS011;39838;59.938;30.642;2023-12-20T05:06:01;5.82;;;2.33;;
48925;SDS011;39838;59.938;30.642;2023-12-20T05:08:28;5.50;;;2.17;;
48925;SDS011;39838;59.938;30.642;2023-12-20T05:10:56;5.07;;;2.03;;
48925;SDS011;39838;59.938;30.642;2023-12-20T05:13:23;7.68;;;1.80;;
48925;SDS011;39838;59.938;30.642;2023-12-20T05:15:52;7.57;;;3.15;;
48925;SDS011;39838;59.938;30.642;2023-12-20T05:18:20;4.32;;;2.05;;
48925;SDS011;39838;59.938;30.642;2023-12-20T05:20:48;5.75;;;2.13;;
48925;SDS011;39838;59.938;30.642;2023-12-20T05:23:16;3.80;;;2.10;;
48925;SDS011;39838;59.938;30.642;2023-12-20T05:25:43;5.53;;;1.88;;
48925;SDS011;39838;59.938;30.642;2023-12-20T05:28:11;3.03;;;1.73;;
48925;SDS011;39838;59.938;30.642;2023-12-20T05:30:38;3.78;;;1.80;;
48925;SDS011;39838;59.938;30.642;2023-12-20T05:33:07;4.95;;;2.00;;
48925;SDS011;39838;59.938;30.642;2023-12-20T05:35:34;7.20;;;2.10;;
48925;SDS011;39838;59.938;30.642;2023-12-20T05:38:01;3.88;;;1.80;;
48925;SDS011;39838;59.938;30.642;2023-12-20T05:40:29;4.68;;;1.75;;
48925;SDS011;39838;59.938;30.642;2023-12-20T05:42:56;4.20;;;1.77;;
48925;SDS011;39838;59.938;30.642;2023-12-20T05:45:23;13.40;;;3.28;;
48925;SDS011;39838;59.938;30.642;2023-12-20T05:47:51;5.85;;;2.03;;
48925;SDS011;39838;59.938;30.642;2023-12-20T05:50:20;5.57;;;2.10;;
48925;SDS011;39838;59.938;30.642;2023-12-20T05:52:47;3.33;;;1.80;;
48925;SDS011;39838;59.938;30.642;2023-12-20T05:55:15;4.97;;;2.20;;
48925;SDS011;39838;59.938;30.642;2023-12-20T05:57:44;5.20;;;2.00;;
48925;SDS011;39838;59.938;30.642;2023-12-20T06:00:11;6.60;;;2.55;;
48925;SDS011;39838;59.938;30.642;2023-12-20T06:02:41;8.65;;;2.10;;
48925;SDS011;39838;59.938;30.642;2023-12-20T06:05:08;5.03;;;2.30;;
48925;SDS011;39838;59.938;30.642;2023-12-20T06:07:37;6.63;;;1.85;;
48925;SDS011;39838;59.938;30.642;2023-12-20T06:10:04;4.50;;;2.05;;
48925;SDS011;39838;59.938;30.642;2023-12-20T06:12:32;7.20;;;1.90;;
48925;SDS011;39838;59.938;30.642;2023-12-20T06:15:01;5.32;;;2.08;;
48925;SDS011;39838;59.938;30.642;2023-12-20T06:17:29;14.00;;;3.10;;
48925;SDS011;39838;59.938;30.642;2023-12-20T06:19:57;5.47;;;2.05;;
48925;SDS011;39838;59.938;30.642;2023-12-20T06:22:24;5.18;;;1.95;;
48925;SDS011;39838;59.938;30.642;2023-12-20T06:24:53;5.38;;;1.92;;
48925;SDS011;39838;59.938;30.642;2023-12-20T06:27:20;5.43;;;2.40;;
48925;SDS011;39838;59.938;30.642;2023-12-20T06:29:47;6.60;;;2.10;;
48925;SDS011;39838;59.938;30.642;2023-12-20T06:32:14;6.20;;;2.40;;
48925;SDS011;39838;59.938;30.642;2023-12-20T06:34:42;4.43;;;2.05;;
48925;SDS011;39838;59.938;30.642;2023-12-20T06:37:09;5.18;;;2.05;;
48925;SDS011;39838;59.938;30.642;2023-12-20T06:39:36;7.20;;;2.30;;
48925;SDS011;39838;59.938;30.642;2023-12-20T06:42:05;4.05;;;2.28;;
48925;SDS011;39838;59.938;30.642;2023-12-20T06:44:32;8.68;;;2.20;;
48925;SDS011;39838;59.938;30.642;2023-12-20T06:47:00;4.30;;;2.28;;
48925;SDS011;39838;59.938;30.642;2023-12-20T06:49:27;7.13;;;2.10;;
48925;SDS011;39838;59.938;30.642;2023-12-20T06:51:54;7.88;;;2.38;;
48925;SDS011;39838;59.938;30.642;2023-12-20T06:54:22;5.32;;;2.50;;
48925;SDS011;39838;59.938;30.642;2023-12-20T06:56:49;5.03;;;2.30;;
48925;SDS011;39838;59.938;30.642;2023-12-20T06:59:18;7.35;;;2.55;;
48925;SDS011;39838;59.938;30.642;2023-12-20T07:01:47;3.63;;;2.05;;
48925;SDS011;39838;59.938;30.642;2023-12-20T07:04:15;5.88;;;2.10;;
48925;SDS011;39838;59.938;30.642;2023-12-20T07:06:45;3.70;;;1.95;;
48925;SDS011;39838;59.938;30.642;2023-12-20T07:09:13;5.22;;;1.80;;
48925;SDS011;39838;59.938;30.642;2023-12-20T07:11:41;3.13;;;2.00;;
48925;SDS011;39838;59.938;30.642;2023-12-20T07:14:08;5.18;;;1.85;;
48925;SDS011;39838;59.938;30.642;2023-12-20T07:16:37;6.05;;;2.22;;
48925;SDS011;39838;59.938;30.642;2023-12-20T07:19:04;4.72;;;2.10;;
48925;SDS011;39838;59.938;30.642;2023-12-20T07:21:31;8.98;;;2.28;;
48925;SDS011;39838;59.938;30.642;2023-12-20T07:23:59;5.38;;;2.20;;
48925;SDS011;39838;59.938;30.642;2023-12-20T07:26:26;3.92;;;2.10;;
48925;SDS011;39838;59.938;30.642;2023-12-20T07:28:53;7.88;;;2.30;;
48925;SDS011;39838;59.938;30.642;2023-12-20T07:31:21;6.65;;;2.03;;
48925;SDS011;39838;59.938;30.642;2023-12-20T07:33:50;4.82;;;1.85;;
48925;SDS011;39838;59.938;30.642;2023-12-20T07:36:19;4.50;;;1.80;;
48925;SDS011;39838;59.938;30.642;2023-12-20T07:38:46;6.43;;;2.38;;
48925;SDS011;39838;59.938;30.642;2023-12-20T07:41:14;5.68;;;2.00;;
48925;SDS011;39838;59.938;30.642;2023-12-20T07:43:42;5.07;;;2.63;;
48925;SDS011;39838;59.938;30.642;2023-12-20T07:46:10;5.47;;;2.15;;
48925;SDS011;39838;59.938;30.642;2023-12-20T07:48:37;5.50;;;2.40;;
48925;SDS011;39838;59.938;30.642;2023-12-20T07:51:06;4.07;;;2.00;;
48925;SDS011;39838;59.938;30.642;2023-12-20T07:53:35;5.55;;;1.95;;
48925;SDS011;39838;59.938;30.642;2023-12-20T07:56:05;5.10;;;2.10;;
48925;SDS011;39838;59.938;30.642;2023-12-20T07:58:40;3.92;;;1.85;;
48925;SDS011;39838;59.938;30.642;2023-12-20T08:01:08;6.00;;;1.98;;
48925;SDS011;39838;59.938;30.642;2023-12-20T08:03:35;4.82;;;2.15;;
48925;SDS011;39838;59.938;30.642;2023-12-20T08:06:02;6.20;;;2.03;;
48925;SDS011;39838;59.938;30.642;2023-12-20T08:08:31;6.80;;;2.10;;
48925;SDS011;39838;59.938;30.642;2023-12-20T08:10:59;3.42;;;2.15;;
48925;SDS011;39838;59.938;30.642;2023-12-20T08:13:26;8.02;;;2.58;;
48925;SDS011;39838;59.938;30.642;2023-12-20T08:15:53;5.35;;;2.13;;
48925;SDS011;39838;59.938;30.642;2023-12-20T08:18:21;5.28;;;2.05;;
48925;SDS011;39838;59.938;30.642;2023-12-20T08:20:49;3.70;;;2.00;;
48925;SDS011;39838;59.938;30.642;2023-12-20T08:23:18;5.78;;;2.40;;
48925;SDS011;39838;59.938;30.642;2023-12-20T08:25:47;7.75;;;2.63;;
48925;SDS011;39838;59.938;30.642;2023-12-20T08:28:15;6.85;;;2.13;;
48925;SDS011;39838;59.938;30.642;2023-12-20T08:30:42;8.63;;;1.90;;
48925;SDS011;39838;59.938;30.642;2023-12-20T08:33:09;3.92;;;1.90;;
48925;SDS011;39838;59.938;30.642;2023-12-20T08:35:38;5.93;;;1.80;;
48925;SDS011;39838;59.938;30.642;2023-12-20T08:38:06;4.18;;;1.92;;
48925;SDS011;39838;59.938;30.642;2023-12-20T08:40:33;4.95;;;1.85;;
48925;SDS011;39838;59.938;30.642;2023-12-20T08:43:02;8.10;;;2.00;;
48925;SDS011;39838;59.938;30.642;2023-12-20T08:45:30;6.85;;;2.00;;
48925;SDS011;39838;59.938;30.642;2023-12-20T08:47:57;6.70;;;1.95;;
48925;SDS011;39838;59.938;30.642;2023-12-20T08:50:25;7.28;;;2.08;;
48925;SDS011;39838;59.938;30.642;2023-12-20T08:52:52;4.90;;;2.30;;
48925;SDS011;39838;59.938;30.642;2023-12-20T08:55:19;6.72;;;2.40;;
48925;SDS011;39838;59.938;30.642;2023-12-20T08:57:47;8.32;;;2.03;;
48925;SDS011;39838;59.938;30.642;2023-12-20T09:00:16;6.75;;;2.10;;
48925;SDS011;39838;59.938;30.642;2023-12-20T09:02:46;5.35;;;2.03;;
48925;SDS011;39838;59.938;30.642;2023-12-20T09:05:13;6.10;;;2.78;;
48925;SDS011;39838;59.938;30.642;2023-12-20T09:07:41;5.22;;;2.20;;
48925;SDS011;39838;59.938;30.642;2023-12-20T09:10:08;7.38;;;2.33;;
48925;SDS011;39838;59.938;30.642;2023-12-20T09:12:36;7.32;;;2.30;;
48925;SDS011;39838;59.938;30.642;2023-12-20T09:15:06;4.60;;;2.10;;
48925;SDS011;39838;59.938;30.642;2023-12-20T09:17:35;4.07;;;2.05;;
48925;SDS011;39838;59.938;30.642;2023-12-20T09:20:02;3.67;;;1.67;;
48925;SDS011;39838;59.938;30.642;2023-12-20T09:22:32;5.28;;;2.10;;
48925;SDS011;39838;59.938;30.642;2023-12-20T09:24:59;7.53;;;2.13;;
48925;SDS011;39838;59.938;30.642;2023-12-20T09:27:29;4.30;;;1.90;;
48925;SDS011;39838;59.938;30.642;2023-12-20T09:29:57;8.80;;;2.22;;
48925;SDS011;39838;59.938;30.642;2023-12-20T09:32:24;5.47;;;2.40;;
48925;SDS011;39838;59.938;30.642;2023-12-20T09:34:53;8.98;;;2.42;;
48925;SDS011;39838;59.938;30.642;2023-12-20T09:37:20;6.25;;;2.15;;
48925;SDS011;39838;59.938;30.642;2023-12-20T09:39:47;7.13;;;2.40;;
48925;SDS011;39838;59.938;30.642;2023-12-20T09:42:16;6.00;;;2.03;;
48925;SDS011;39838;59.938;30.642;2023-12-20T09:44:48;4.03;;;2.20;;
48925;SDS011;39838;59.938;30.642;2023-12-20T09:47:15;10.52;;;2.15;;
48925;SDS011;39838;59.938;30.642;2023-12-20T09:49:46;2.90;;;1.85;;
48925;SDS011;39838;59.938;30.642;2023-12-20T09:52:15;6.97;;;2.13;;
48925;SDS011;39838;59.938;30.642;2023-12-20T09:54:43;6.78;;;2.30;;
48925;SDS011;39838;59.938;30.642;2023-12-20T09:57:12;12.50;;;3.22;;
48925;SDS011;39838;59.938;30.642;2023-12-20T09:59:39;4.57;;;1.95;;
48925;SDS011;39838;59.938;30.642;2023-12-20T10:02:07;8.10;;;2.38;;
48925;SDS011;39838;59.938;30.642;2023-12-20T10:04:39;7.05;;;2.28;;
48925;SDS011;39838;59.938;30.642;2023-12-20T10:07:13;9.77;;;2.28;;
48925;SDS011;39838;59.938;30.642;2023-12-20T10:09:42;7.78;;;2.53;;
48925;SDS011;39838;59.938;30.642;2023-12-20T10:12:10;8.38;;;2.30;;
48925;SDS011;39838;59.938;30.642;2023-12-20T10:14:38;6.20;;;2.20;;
48925;SDS011;39838;59.938;30.642;2023-12-20T10:17:06;3.95;;;2.03;;
48925;SDS011;39838;59.938;30.642;2023-12-20T10:19:33;8.68;;;2.15;;
48925;SDS011;39838;59.938;30.642;2023-12-20T10:22:01;4.50;;;1.80;;
48925;SDS011;39838;59.938;30.642;2023-12-20T10:24:31;8.80;;;2.53;;
48925;SDS011;39838;59.938;30.642;2023-12-20T10:27:03;4.45;;;2.40;;
48925;SDS011;39838;59.938;30.642;2023-12-20T10:29:32;5.20;;;2.10;;
48925;SDS011;39838;59.938;30.642;2023-12-20T10:31:59;5.68;;;2.20;;
48925;SDS011;39838;59.938;30.642;2023-12-20T10:34:26;4.85;;;2.30;;
48925;SDS011;39838;59.938;30.642;2023-12-20T10:36:53;15.38;;;2.75;;
48925;SDS011;39838;59.938;30.642;2023-12-20T10:39:20;6.75;;;2.95;;
48925;SDS011;39838;59.938;30.642;2023-12-20T10:41:48;6.00;;;2.28;;
48925;SDS011;39838;59.938;30.642;2023-12-20T10:44:17;5.43;;;2.20;;
48925;SDS011;39838;59.938;30.642;2023-12-20T10:46:44;8.02;;;3.03;;
48925;SDS011;39838;59.938;30.642;2023-12-20T10:49:17;11.63;;;2.95;;
48925;SDS011;39838;59.938;30.642;2023-12-20T10:51:46;5.60;;;2.63;;
48925;SDS011;39838;59.938;30.642;2023-12-20T10:54:14;8.68;;;2.50;;
48925;SDS011;39838;59.938;30.642;2023-12-20T10:56:42;7.28;;;2.80;;
48925;SDS011;39838;59.938;30.642;2023-12-20T10:59:10;3.47;;;1.75;;
48925;SDS011;39838;59.938;30.642;2023-12-20T11:01:39;6.43;;;2.28;;
48925;SDS011;39838;59.938;30.642;2023-12-20T11:04:09;6.32;;;2.30;;
48925;SDS011;39838;59.938;30.642;2023-12-20T11:06:44;6.57;;;2.03;;
48925;SDS011;39838;59.938;30.642;2023-12-20T11:09:17;8.50;;;2.15;;
48925;SDS011;39838;59.938;30.642;2023-12-20T11:11:56;4.10;;;1.98;;
48925;SDS011;39838;59.938;30.642;2023-12-20T11:14:31;7.00;;;2.10;;
48925;SDS011;39838;59.938;30.642;2023-12-20T11:17:08;5.45;;;1.92;;
48925;SDS011;39838;59.938;30.642;2023-12-20T11:22:09;7.90;;;2.03;;
48925;SDS011;39838;59.938;30.642;2023-12-20T11:24:38;4.35;;;1.70;;
48925;SDS011;39838;59.938;30.642;2023-12-20T11:27:12;4.43;;;2.40;;
48925;SDS011;39838;59.938;30.642;2023-12-20T11:29:40;8.85;;;2.97;;
48925;SDS011;39838;59.938;30.642;2023-12-20T11:34:56;5.18;;;2.00;;
48925;SDS011;39838;59.938;30.642;2023-12-20T11:37:28;9.38;;;2.70;;
48925;SDS011;39838;59.938;30.642;2023-12-20T11:40:00;8.00;;;2.40;;
48925;SDS011;39838;59.938;30.642;2023-12-20T11:42:32;6.03;;;2.00;;
48925;SDS011;39838;59.938;30.642;2023-12-20T11:45:01;7.05;;;2.15;;
48925;SDS011;39838;59.938;30.642;2023-12-20T11:47:32;6.07;;;2.30;;
48925;SDS011;39838;59.938;30.642;2023-12-20T11:50:00;5.53;;;2.25;;
48925;SDS011;39838;59.938;30.642;2023-12-20T11:52:30;9.43;;;2.60;;
48925;SDS011;39838;59.938;30.642;2023-12-20T11:54:57;5.65;;;2.38;;
48925;SDS011;39838;59.938;30.642;2023-12-20T11:57:25;4.97;;;2.15;;
48925;SDS011;39838;59.938;30.642;2023-12-20T11:59:52;6.68;;;2.58;;
48925;SDS011;39838;59.938;30.642;2023-12-20T12:02:19;9.25;;;2.33;;
48925;SDS011;39838;59.938;30.642;2023-12-20T12:04:49;3.67;;;2.08;;
48925;SDS011;39838;59.938;30.642;2023-12-20T12:07:17;5.20;;;2.13;;
48925;SDS011;39838;59.938;30.642;2023-12-20T12:09:45;4.25;;;1.75;;
48925;SDS011;39838;59.938;30.642;2023-12-20T12:12:13;7.63;;;2.55;;
48925;SDS011;39838;59.938;30.642;2023-12-20T12:14:40;6.47;;;1.70;;
48925;SDS011;39838;59.938;30.642;2023-12-20T12:17:10;5.78;;;2.00;;
48925;SDS011;39838;59.938;30.642;2023-12-20T12:19:38;5.60;;;2.15;;
48925;SDS011;39838;59.938;30.642;2023-12-20T12:22:07;8.35;;;2.30;;
48925;SDS011;39838;59.938;30.642;2023-12-20T12:24:38;6.20;;;2.20;;
48925;SDS011;39838;59.938;30.642;2023-12-20T12:27:06;5.90;;;2.45;;
48925;SDS011;39838;59.938;30.642;2023-12-20T12:29:33;7.35;;;2.38;;
48925;SDS011;39838;59.938;30.642;2023-12-20T12:32:01;6.07;;;2.50;;
48925;SDS011;39838;59.938;30.642;2023-12-20T12:34:31;5.03;;;2.20;;
48925;SDS011;39838;59.938;30.642;2023-12-20T12:36:59;6.55;;;2.15;;
48925;SDS011;39838;59.938;30.642;2023-12-20T12:39:28;5.72;;;2.00;;
48925;SDS011;39838;59.938;30.642;2023-12-20T12:41:56;5.13;;;2.08;;
48925;SDS011;39838;59.938;30.642;2023-12-20T12:44:24;7.85;;;2.20;;
48925;SDS011;39838;59.938;30.642;2023-12-20T12:46:51;8.73;;;2.30;;
48925;SDS011;39838;59.938;30.642;2023-12-20T12:49:19;8.23;;;2.35;;
48925;SDS011;39838;59.938;30.642;2023-12-20T12:51:47;6.78;;;2.53;;
48925;SDS011;39838;59.938;30.642;2023-12-20T12:54:15;7.18;;;2.20;;
48925;SDS011;39838;59.938;30.642;2023-12-20T12:56:44;6.30;;;1.98;;
48925;SDS011;39838;59.938;30.642;2023-12-20T12:59:13;6.97;;;2.15;;
48925;SDS011;39838;59.938;30.642;2023-12-20T13:01:40;5.38;;;2.13;;
48925;SDS011;39838;59.938;30.642;2023-12-20T13:04:08;6.03;;;2.10;;
48925;SDS011;39838;59.938;30.642;2023-12-20T13:06:36;6.57;;;2.20;;
48925;SDS011;39838;59.938;30.642;2023-12-20T13:09:04;7.65;;;2.15;;
48925;SDS011;39838;59.938;30.642;2023-12-20T13:11:32;9.70;;;2.85;;
48925;SDS011;39838;59.938;30.642;2023-12-20T13:14:01;5.47;;;2.42;;
48925;SDS011;39838;59.938;30.642;2023-12-20T13:16:29;5.80;;;1.95;;
48925;SDS011;39838;59.938;30.642;2023-12-20T13:18:56;7.18;;;2.40;;
48925;SDS011;39838;59.938;30.642;2023-12-20T13:21:25;6.70;;;2.40;;
48925;SDS011;39838;59.938;30.642;2023-12-20T13:23:52;7.13;;;2.08;;
48925;SDS011;39838;59.938;30.642;2023-12-20T13:26:19;6.40;;;2.08;;
48925;SDS011;39838;59.938;30.642;2023-12-20T13:28:47;4.15;;;2.17;;
48925;SDS011;39838;59.938;30.642;2023-12-20T13:31:15;7.38;;;2.40;;
48925;SDS011;39838;59.938;30.642;2023-12-20T13:33:46;9.10;;;2.85;;
48925;SDS011;39838;59.938;30.642;2023-12-20T13:36:13;7.80;;;2.70;;
48925;SDS011;39838;59.938;30.642;2023-12-20T13:38:40;5.75;;;2.13;;
48925;SDS011;39838;59.938;30.642;2023-12-20T13:41:08;7.10;;;2.03;;
48925;SDS011;39838;59.938;30.642;2023-12-20T13:43:35;6.57;;;1.98;;
48925;SDS011;39838;59.938;30.642;2023-12-20T13:46:02;5.40;;;2.20;;
48925;SDS011;39838;59.938;30.642;2023-12-20T13:48:31;5.68;;;2.17;;
48925;SDS011;39838;59.938;30.642;2023-12-20T13:50:58;6.45;;;2.22;;
48925;SDS011;39838;59.938;30.642;2023-12-20T13:53:25;4.60;;;1.80;;
48925;SDS011;39838;59.938;30.642;2023-12-20T13:55:53;5.72;;;2.33;;
48925;SDS011;39838;59.938;30.642;2023-12-20T13:58:21;7.63;;;2.50;;
48925;SDS011;39838;59.938;30.642;2023-12-20T14:00:48;8.10;;;2.47;;
48925;SDS011;39838;59.938;30.642;2023-12-20T14:03:15;3.97;;;2.00;;
48925;SDS011;39838;59.938;30.642;2023-12-20T14:05:44;7.05;;;2.25;;
48925;SDS011;39838;59.938;30.642;2023-12-20T14:08:11;8.10;;;2.35;;
48925;SDS011;39838;59.938;30.642;2023-12-20T14:10:39;6.55;;;2.40;;
48925;SDS011;39838;59.938;30.642;2023-12-20T14:13:06;6.40;;;2.45;;
48925;SDS011;39838;59.938;30.642;2023-12-20T14:15:33;6.82;;;2.22;;
48925;SDS011;39838;59.938;30.642;2023-12-20T14:18:03;6.38;;;2.90;;
48925;SDS011;39838;59.938;30.642;2023-12-20T14:20:33;6.22;;;2.47;;
48925;SDS011;39838;59.938;30.642;2023-12-20T14:23:02;9.20;;;2.92;;
48925;SDS011;39838;59.938;30.642;2023-12-20T14:25:30;4.57;;;2.20;;
48925;SDS011;39838;59.938;30.642;2023-12-20T14:27:57;9.13;;;2.88;;
48925;SDS011;39838;59.938;30.642;2023-12-20T14:30:25;6.10;;;2.13;;
48925;SDS011;39838;59.938;30.642;2023-12-20T14:32:53;10.85;;;2.42;;
48925;SDS011;39838;59.938;30.642;2023-12-20T14:35:20;9.30;;;2.50;;
48925;SDS011;39838;59.938;30.642;2023-12-20T14:37:48;5.22;;;2.22;;
48925;SDS011;39838;59.938;30.642;2023-12-20T14:40:17;5.47;;;2.50;;
48925;SDS011;39838;59.938;30.642;2023-12-20T14:42:45;9.13;;;3.38;;